Time,TemperatureF,DewpointF,PressureIn,WindDirection,WindDirectionDegrees,WindSpeedMPH,WindSpeedGustMPH,Humidity,HourlyPrecipIn,Conditions,Clouds,dailyrainin,SoftwareType,DateUTC
2014-12-19 00:01:00,32.2,21.8,29.92,NW,315,4.0,10.3,65,0.00,,,0.00,WUHU216HW,2014-12-19 07:01:00,
2014-12-19 00:06:00,32.4,22.0,29.92,WSW,248,7.6,9.8,65,0.00,,,0.00,WUHU216HW,2014-12-19 07:06:00,
2014-12-19 00:11:00,32.6,22.1,29.92,SSW,203,4.9,10.7,65,0.00,,,0.00,WUHU216HW,2014-12-19 07:11:00,
2014-12-19 00:16:00,32.8,22.2,29.92,SW,225,5.1,10.7,65,0.00,,,0.00,WUHU216HW,2014-12-19 07:16:00,
2014-12-19 00:21:00,32.9,22.1,29.93,WSW,248,11.0,11.0,64,0.00,,,0.00,WUHU216HW,2014-12-19 07:21:00,
2014-12-19 00:26:00,33.1,21.9,29.93,SW,225,4.7,11.0,63,0.00,,,0.00,WUHU216HW,2014-12-19 07:26:00,
2014-12-19 00:31:00,33.1,21.9,29.92,SSW,203,9.6,9.6,63,0.00,,,0.00,WUHU216HW,2014-12-19 07:31:00,
2014-12-19 00:36:00,33.1,22.2,29.92,SW,225,7.4,9.6,64,0.00,,,0.00,WUHU216HW,2014-12-19 07:36:00,
2014-12-19 00:41:00,33.3,22.1,29.92,WSW,248,8.5,8.5,63,0.00,,,0.00,WUHU216HW,2014-12-19 07:41:00,
2014-12-19 00:46:00,33.3,22.1,29.92,SW,225,3.4,8.5,63,0.00,,,0.00,WUHU216HW,2014-12-19 07:46:00,
2014-12-19 00:51:00,33.5,22.1,29.92,SE,135,3.4,7.6,63,0.00,,,0.00,WUHU216HW,2014-12-19 07:51:00,
2014-12-19 00:56:00,33.5,22.1,29.92,WSW,248,4.9,7.6,63,0.00,,,0.00,WUHU216HW,2014-12-19 07:56:00,
2014-12-19 01:01:00,33.3,21.7,29.92,SSE,158,6.0,10.1,62,0.00,,,0.00,WUHU216HW,2014-12-19 08:01:00,
2014-12-19 01:06:00,33.3,21.7,29.92,SSW,203,7.6,11.4,62,0.00,,,0.00,WUHU216HW,2014-12-19 08:06:00,
2014-12-19 01:11:00,33.3,21.7,29.92,WSW,248,6.5,11.4,62,0.00,,,0.00,WUHU216HW,2014-12-19 08:11:00,
2014-12-19 01:16:00,33.3,21.7,29.92,SW,225,7.6,11.4,62,0.00,,,0.00,WUHU216HW,2014-12-19 08:16:00,
2014-12-19 01:21:00,33.3,21.7,29.92,South,180,10.5,10.5,62,0.00,,,0.00,WUHU216HW,2014-12-19 08:21:00,
2014-12-19 01:26:00,33.3,21.7,29.92,WSW,248,6.7,10.5,62,0.00,,,0.00,WUHU216HW,2014-12-19 08:26:00,
2014-12-19 01:31:00,33.3,21.7,29.92,South,180,7.2,7.6,62,0.00,,,0.00,WUHU216HW,2014-12-19 08:31:00,
2014-12-19 01:36:00,33.3,21.7,29.92,SW,225,6.5,7.6,62,0.00,,,0.00,WUHU216HW,2014-12-19 08:36:00,
2014-12-19 01:41:00,33.1,21.5,29.92,SW,225,4.7,9.8,62,0.00,,,0.00,WUHU216HW,2014-12-19 08:41:00,
2014-12-19 01:46:00,33.1,21.5,29.92,SW,225,5.4,11.4,62,0.00,,,0.00,WUHU216HW,2014-12-19 08:46:00,
2014-12-19 01:51:00,33.1,21.2,29.92,North,0,2.9,11.4,61,0.00,,,0.00,WUHU216HW,2014-12-19 08:51:00,
2014-12-19 01:56:00,33.1,21.5,29.92,WNW,293,6.0,8.5,62,0.00,,,0.00,WUHU216HW,2014-12-19 08:56:00,
2014-12-19 02:01:00,33.1,21.5,29.92,West,270,2.5,6.0,62,0.00,,,0.00,WUHU216HW,2014-12-19 09:01:00,
2014-12-19 02:06:00,33.1,21.5,29.92,West,270,3.4,5.1,62,0.00,,,0.00,WUHU216HW,2014-12-19 09:06:00,
2014-12-19 02:11:00,33.1,21.5,29.92,SSW,203,3.1,8.1,62,0.00,,,0.00,WUHU216HW,2014-12-19 09:11:00,
2014-12-19 02:16:00,33.1,21.5,29.92,NNE,23,4.7,8.1,62,0.00,,,0.00,WUHU216HW,2014-12-19 09:16:00,
2014-12-19 02:21:00,33.1,21.5,29.93,SE,135,3.6,7.6,62,0.00,,,0.00,WUHU216HW,2014-12-19 09:21:00,
2014-12-19 02:26:00,33.1,21.5,29.93,East,90,4.5,4.7,62,0.00,,,0.00,WUHU216HW,2014-12-19 09:26:00,
2014-12-19 02:31:00,32.9,21.3,29.93,SSW,203,1.8,6.3,62,0.00,,,0.00,WUHU216HW,2014-12-19 09:31:00,
2014-12-19 02:36:00,32.9,21.3,29.93,WSW,248,0.9,6.3,62,0.00,,,0.00,WUHU216HW,2014-12-19 09:36:00,
2014-12-19 02:41:00,33.1,21.5,29.93,ESE,113,1.8,4.3,62,0.00,,,0.00,WUHU216HW,2014-12-19 09:41:00,
2014-12-19 02:46:00,33.1,21.5,29.93,SSE,158,8.5,8.5,62,0.00,,,0.00,WUHU216HW,2014-12-19 09:46:00,
2014-12-19 02:51:00,33.1,21.5,29.93,SSW,203,6.0,10.1,62,0.00,,,0.00,WUHU216HW,2014-12-19 09:51:00,
2014-12-19 02:56:00,33.1,21.5,29.92,SE,135,1.6,10.1,62,0.00,,,0.00,WUHU216HW,2014-12-19 09:56:00,
2014-12-19 03:01:00,33.1,21.5,29.92,SE,135,4.7,11.4,62,0.00,,,0.00,WUHU216HW,2014-12-19 10:01:00,
2014-12-19 03:06:00,33.1,21.5,29.92,SSW,203,6.3,11.4,62,0.00,,,0.00,WUHU216HW,2014-12-19 10:06:00,
2014-12-19 03:11:00,33.1,21.5,29.93,South,180,7.4,7.4,62,0.00,,,0.00,WUHU216HW,2014-12-19 10:11:00,
2014-12-19 03:16:00,33.1,21.5,29.93,North,0,3.4,7.4,62,0.00,,,0.00,WUHU216HW,2014-12-19 10:16:00,
2014-12-19 03:21:00,33.1,21.5,29.93,SW,225,0.4,4.5,62,0.00,,,0.00,WUHU216HW,2014-12-19 10:21:00,
2014-12-19 03:26:00,33.1,21.5,29.93,NE,45,1.1,4.3,62,0.00,,,0.00,WUHU216HW,2014-12-19 10:26:00,
2014-12-19 03:31:00,33.1,21.5,29.93,ENE,68,1.8,2.0,62,0.00,,,0.00,WUHU216HW,2014-12-19 10:31:00,
2014-12-19 03:36:00,32.9,21.3,29.93,SW,225,0.4,2.5,62,0.00,,,0.00,WUHU216HW,2014-12-19 10:36:00,
2014-12-19 03:41:00,32.9,21.3,29.93,North,0,0.7,2.5,62,0.00,,,0.00,WUHU216HW,2014-12-19 10:41:00,
2014-12-19 03:46:00,33.1,21.5,29.92,WNW,293,0.9,4.0,62,0.00,,,0.00,WUHU216HW,2014-12-19 10:46:00,
2014-12-19 03:51:00,33.1,21.5,29.92,West,270,2.0,4.0,62,0.00,,,0.00,WUHU216HW,2014-12-19 10:51:00,
2014-12-19 03:56:00,33.1,21.5,29.92,SSW,203,0.0,3.4,62,0.00,,,0.00,WUHU216HW,2014-12-19 10:56:00,
2014-12-19 04:01:00,33.3,21.7,29.92,WSW,248,1.6,4.0,62,0.00,,,0.00,WUHU216HW,2014-12-19 11:01:00,
2014-12-19 04:06:00,33.5,21.8,29.92,NNW,338,3.4,4.7,62,0.00,,,0.00,WUHU216HW,2014-12-19 11:06:00,
2014-12-19 04:11:00,33.5,21.4,29.92,WNW,293,5.1,6.5,61,0.00,,,0.00,WUHU216HW,2014-12-19 11:11:00,
2014-12-19 04:16:00,33.5,21.4,29.92,WNW,293,1.8,6.5,61,0.00,,,0.00,WUHU216HW,2014-12-19 11:16:00,
2014-12-19 04:21:00,33.5,21.4,29.92,NNW,338,0.9,4.7,61,0.00,,,0.00,WUHU216HW,2014-12-19 11:21:00,
2014-12-19 04:26:00,33.5,21.8,29.92,WSW,248,0.0,3.6,62,0.00,,,0.00,WUHU216HW,2014-12-19 11:26:00,
2014-12-19 04:31:00,33.5,21.8,29.92,NNE,23,1.1,3.6,62,0.00,,,0.00,WUHU216HW,2014-12-19 11:31:00,
2014-12-19 04:36:00,33.5,21.8,29.92,West,270,2.5,4.3,62,0.00,,,0.00,WUHU216HW,2014-12-19 11:36:00,
2014-12-19 04:41:00,33.5,21.8,29.92,WSW,248,1.6,5.4,62,0.00,,,0.00,WUHU216HW,2014-12-19 11:41:00,
2014-12-19 04:51:00,33.7,22.0,29.92,NNE,23,1.3,4.3,62,0.00,,,0.00,WUHU216HW,2014-12-19 11:51:00,
2014-12-19 04:56:00,33.8,21.8,29.92,WNW,293,2.5,6.9,61,0.00,,,0.00,WUHU216HW,2014-12-19 11:56:00,
2014-12-19 05:01:00,33.8,21.8,29.92,West,270,1.3,6.9,61,0.00,,,0.00,WUHU216HW,2014-12-19 12:01:00,
2014-12-19 05:06:00,33.8,21.8,29.92,NNW,338,2.7,4.7,61,0.00,,,0.00,WUHU216HW,2014-12-19 12:06:00,
2014-12-19 05:11:00,33.8,21.8,29.92,South,180,0.4,4.7,61,0.00,,,0.00,WUHU216HW,2014-12-19 12:11:00,
2014-12-19 05:16:00,33.8,21.8,29.92,SSE,158,2.5,7.8,61,0.00,,,0.00,WUHU216HW,2014-12-19 12:16:00,
2014-12-19 05:21:00,33.8,21.8,29.92,SSE,158,3.4,7.8,61,0.00,,,0.00,WUHU216HW,2014-12-19 12:21:00,
2014-12-19 05:26:00,33.7,21.2,29.92,WSW,248,5.8,5.8,60,0.00,,,0.00,WUHU216HW,2014-12-19 12:26:00,
2014-12-19 05:31:00,33.7,21.2,29.91,WSW,248,2.7,5.8,60,0.00,,,0.00,WUHU216HW,2014-12-19 12:31:00,
2014-12-19 05:36:00,33.5,21.1,29.92,WNW,293,7.6,8.1,60,0.00,,,0.00,WUHU216HW,2014-12-19 12:36:00,
2014-12-19 05:41:00,33.7,21.2,29.91,SW,225,5.6,9.8,60,0.00,,,0.00,WUHU216HW,2014-12-19 12:41:00,
2014-12-19 05:46:00,33.5,21.1,29.91,SW,225,2.5,9.8,60,0.00,,,0.00,WUHU216HW,2014-12-19 12:46:00,
2014-12-19 05:51:00,33.5,21.1,29.91,SE,135,4.3,8.3,60,0.00,,,0.00,WUHU216HW,2014-12-19 12:51:00,
2014-12-19 05:56:00,33.1,20.8,29.91,West,270,5.4,8.3,60,0.00,,,0.00,WUHU216HW,2014-12-19 12:56:00,
2014-12-19 06:01:00,32.9,20.6,29.91,South,180,2.2,6.0,60,0.00,,,0.00,WUHU216HW,2014-12-19 13:01:00,
2014-12-19 06:06:00,32.8,20.4,29.91,SSW,203,3.8,8.5,60,0.00,,,0.00,WUHU216HW,2014-12-19 13:06:00,
2014-12-19 06:11:00,32.8,20.4,29.91,SSW,203,4.5,8.5,60,0.00,,,0.00,WUHU216HW,2014-12-19 13:11:00,
2014-12-19 06:16:00,32.8,20.4,29.91,West,270,2.5,6.5,60,0.00,,,0.00,WUHU216HW,2014-12-19 13:16:00,
2014-12-19 06:21:00,32.6,20.3,29.91,SSE,158,4.5,7.2,60,0.00,,,0.00,WUHU216HW,2014-12-19 13:21:00,
2014-12-19 06:26:00,32.4,20.2,29.91,SSW,203,11.2,11.2,60,0.00,,,0.00,WUHU216HW,2014-12-19 13:26:00,
2014-12-19 06:31:00,32.2,20.0,29.91,WSW,248,5.4,11.2,60,0.00,,,0.00,WUHU216HW,2014-12-19 13:31:00,
2014-12-19 06:36:00,32.0,19.8,29.91,WSW,248,4.9,7.8,60,0.00,,,0.00,WUHU216HW,2014-12-19 13:36:00,
2014-12-19 06:41:00,32.0,20.2,29.91,East,90,4.7,7.8,61,0.00,,,0.00,WUHU216HW,2014-12-19 13:41:00,
2014-12-19 06:46:00,31.9,20.0,29.91,SW,225,3.8,7.2,61,0.00,,,0.00,WUHU216HW,2014-12-19 13:46:00,
2014-12-19 06:51:00,31.7,19.8,29.91,West,270,5.1,12.3,61,0.00,,,0.00,WUHU216HW,2014-12-19 13:51:00,
2014-12-19 06:56:00,31.3,19.4,29.91,SW,225,4.9,12.3,61,0.00,,,0.00,WUHU216HW,2014-12-19 13:56:00,
2014-12-19 07:01:00,31.3,19.8,29.91,WSW,248,4.5,7.6,62,0.00,,,0.00,WUHU216HW,2014-12-19 14:01:00,
2014-12-19 07:06:00,31.1,19.6,29.91,South,180,4.0,6.9,62,0.00,,,0.00,WUHU216HW,2014-12-19 14:06:00,
2014-12-19 07:11:00,31.1,19.6,29.91,WSW,248,4.5,6.9,62,0.00,,,0.00,WUHU216HW,2014-12-19 14:11:00,
2014-12-19 07:16:00,31.0,19.4,29.91,SSW,203,2.5,11.2,62,0.00,,,0.00,WUHU216HW,2014-12-19 14:16:00,
2014-12-19 07:21:00,31.1,19.6,29.91,SSW,203,2.9,11.2,62,0.00,,,0.00,WUHU216HW,2014-12-19 14:21:00,
2014-12-19 07:26:00,31.1,19.6,29.91,WSW,248,4.9,5.6,62,0.00,,,0.00,WUHU216HW,2014-12-19 14:26:00,
2014-12-19 07:31:00,31.1,19.6,29.92,East,90,2.5,6.9,62,0.00,,,0.00,WUHU216HW,2014-12-19 14:31:00,
2014-12-19 07:36:00,31.1,19.3,29.92,West,270,2.2,6.9,61,0.00,,,0.00,WUHU216HW,2014-12-19 14:36:00,
2014-12-19 07:41:00,31.1,19.6,29.92,SSE,158,0.2,4.0,62,0.00,,,0.00,WUHU216HW,2014-12-19 14:41:00,
2014-12-19 07:46:00,31.1,19.6,29.91,NW,315,0.7,2.5,62,0.00,,,0.00,WUHU216HW,2014-12-19 14:46:00,
2014-12-19 07:51:00,31.0,19.4,29.91,NW,315,0.0,2.0,62,0.00,,,0.00,WUHU216HW,2014-12-19 14:51:00,
2014-12-19 07:56:00,30.8,19.3,29.91,NW,315,0.0,0.4,62,0.00,,,0.00,WUHU216HW,2014-12-19 14:56:00,
2014-12-19 08:01:00,30.6,19.1,29.91,NNW,338,1.6,1.6,62,0.00,,,0.00,WUHU216HW,2014-12-19 15:01:00,
2014-12-19 08:06:00,30.6,19.1,29.91,West,270,1.8,1.8,62,0.00,,,0.00,WUHU216HW,2014-12-19 15:06:00,
2014-12-19 08:11:00,30.6,19.1,29.91,WSW,248,0.7,2.5,62,0.00,,,0.00,WUHU216HW,2014-12-19 15:11:00,
2014-12-19 08:16:00,30.6,19.1,29.91,WSW,248,2.9,4.7,62,0.00,,,0.00,WUHU216HW,2014-12-19 15:16:00,
2014-12-19 08:21:00,30.8,19.3,29.91,WNW,293,3.8,4.7,62,0.00,,,0.00,WUHU216HW,2014-12-19 15:21:00,
2014-12-19 08:26:00,31.0,19.4,29.91,West,270,5.4,5.4,62,0.00,,,0.00,WUHU216HW,2014-12-19 15:26:00,
2014-12-19 08:31:00,31.0,19.4,29.91,West,270,3.4,5.4,62,0.00,,,0.00,WUHU216HW,2014-12-19 15:31:00,
2014-12-19 08:36:00,31.1,19.6,29.91,NW,315,3.8,4.7,62,0.00,,,0.00,WUHU216HW,2014-12-19 15:36:00,
2014-12-19 08:41:00,31.3,19.8,29.92,WSW,248,2.9,4.7,62,0.00,,,0.00,WUHU216HW,2014-12-19 15:41:00,
2014-12-19 08:46:00,31.7,20.2,29.92,WSW,248,3.4,4.7,62,0.00,,,0.00,WUHU216HW,2014-12-19 15:46:00,
2014-12-19 08:51:00,31.9,20.3,29.92,WSW,248,2.2,3.8,62,0.00,,,0.00,WUHU216HW,2014-12-19 15:51:00,
2014-12-19 08:56:00,32.0,20.5,29.91,West,270,1.1,3.6,62,0.00,,,0.00,WUHU216HW,2014-12-19 15:56:00,
2014-12-19 09:01:00,32.4,20.9,29.92,West,270,1.3,3.6,62,0.00,,,0.00,WUHU216HW,2014-12-19 16:01:00,
2014-12-19 09:06:00,32.8,21.2,29.91,WNW,293,0.9,2.2,62,0.00,,,0.00,WUHU216HW,2014-12-19 16:06:00,
2014-12-19 09:11:00,32.8,20.8,29.92,NNE,23,1.3,2.5,61,0.00,,,0.00,WUHU216HW,2014-12-19 16:11:00,
2014-12-19 09:16:00,32.9,21.0,29.92,NNW,338,0.7,2.5,61,0.00,,,0.00,WUHU216HW,2014-12-19 16:16:00,
2014-12-19 09:21:00,33.1,20.8,29.92,NW,315,1.3,2.5,60,0.00,,,0.00,WUHU216HW,2014-12-19 16:21:00,
2014-12-19 09:26:00,33.5,21.1,29.92,West,270,4.7,4.7,60,0.00,,,0.00,WUHU216HW,2014-12-19 16:26:00,
2014-12-19 09:31:00,33.5,21.1,29.92,West,270,4.0,4.7,60,0.00,,,0.00,WUHU216HW,2014-12-19 16:31:00,
2014-12-19 09:36:00,33.7,20.8,29.92,WSW,248,5.6,5.6,59,0.00,,,0.00,WUHU216HW,2014-12-19 16:36:00,
2014-12-19 09:41:00,33.8,21.0,29.92,West,270,5.4,5.6,59,0.00,,,0.00,WUHU216HW,2014-12-19 16:41:00,
2014-12-19 09:46:00,34.2,21.3,29.92,WSW,248,3.8,5.4,59,0.00,,,0.00,WUHU216HW,2014-12-19 16:46:00,
2014-12-19 09:51:00,34.4,21.5,29.92,SW,225,2.7,5.8,59,0.00,,,0.00,WUHU216HW,2014-12-19 16:51:00,
2014-12-19 09:56:00,34.7,21.4,29.92,SSW,203,2.0,7.6,58,0.00,,,0.00,WUHU216HW,2014-12-19 16:56:00,
2014-12-19 10:01:00,34.9,21.6,29.92,WSW,248,1.8,7.6,58,0.00,,,0.00,WUHU216HW,2014-12-19 17:01:00,
2014-12-19 10:06:00,35.3,22.4,29.92,South,180,3.8,5.8,59,0.00,,,0.00,WUHU216HW,2014-12-19 17:06:00,
2014-12-19 10:11:00,35.3,22.4,29.92,West,270,3.8,4.9,59,0.00,,,0.00,WUHU216HW,2014-12-19 17:11:00,
2014-12-19 10:16:00,35.6,22.8,29.92,West,270,2.2,4.3,59,0.00,,,0.00,WUHU216HW,2014-12-19 17:16:00,
2014-12-19 10:21:00,35.6,22.3,29.92,South,180,1.1,4.7,58,0.00,,,0.00,WUHU216HW,2014-12-19 17:21:00,
2014-12-19 10:26:00,36.0,22.7,29.92,WSW,248,4.0,5.4,58,0.00,,,0.00,WUHU216HW,2014-12-19 17:26:00,
2014-12-19 10:31:00,36.5,22.8,29.91,South,180,4.3,5.8,57,0.00,,,0.00,WUHU216HW,2014-12-19 17:31:00,
2014-12-19 10:36:00,36.9,22.6,29.92,WSW,248,4.5,7.2,56,0.00,,,0.00,WUHU216HW,2014-12-19 17:36:00,
2014-12-19 10:41:00,37.1,23.2,29.91,WSW,248,2.9,7.2,57,0.00,,,0.00,WUHU216HW,2014-12-19 17:41:00,
2014-12-19 10:46:00,37.1,22.8,29.91,South,180,0.2,6.3,56,0.00,,,0.00,WUHU216HW,2014-12-19 17:46:00,
2014-12-19 10:51:00,37.3,23.4,29.91,WNW,293,3.6,6.3,57,0.00,,,0.00,WUHU216HW,2014-12-19 17:51:00,
2014-12-19 10:56:00,37.4,22.7,29.91,West,270,1.1,3.6,55,0.00,,,0.00,WUHU216HW,2014-12-19 17:56:00,
2014-12-19 11:01:00,37.6,23.3,29.90,SSE,158,2.5,3.4,56,0.00,,,0.00,WUHU216HW,2014-12-19 18:01:00,
2014-12-19 11:06:00,37.6,23.3,29.90,SW,225,1.3,3.4,56,0.00,,,0.00,WUHU216HW,2014-12-19 18:06:00,
2014-12-19 11:11:00,37.4,23.1,29.90,WSW,248,2.5,3.4,56,0.00,,,0.00,WUHU216HW,2014-12-19 18:11:00,
2014-12-19 11:16:00,37.6,22.9,29.90,WSW,248,9.8,9.8,55,0.00,,,0.00,WUHU216HW,2014-12-19 18:16:00,
2014-12-19 11:21:00,37.6,22.9,29.90,West,270,4.7,9.8,55,0.00,,,0.00,WUHU216HW,2014-12-19 18:21:00,
2014-12-19 11:26:00,38.0,23.1,29.90,WSW,248,4.0,5.6,55,0.00,,,0.00,WUHU216HW,2014-12-19 18:26:00,
2014-12-19 11:31:00,38.3,23.5,29.89,West,270,1.3,5.6,55,0.00,,,0.00,WUHU216HW,2014-12-19 18:31:00,
2014-12-19 11:36:00,38.7,23.9,29.89,SSE,158,3.1,4.9,55,0.00,,,0.00,WUHU216HW,2014-12-19 18:36:00,
2014-12-19 11:41:00,38.9,23.6,29.89,SSW,203,3.6,5.6,54,0.00,,,0.00,WUHU216HW,2014-12-19 18:41:00,
2014-12-19 11:46:00,38.9,23.6,29.89,SSE,158,1.1,5.6,54,0.00,,,0.00,WUHU216HW,2014-12-19 18:46:00,
2014-12-19 11:51:00,39.2,23.9,29.88,SSW,203,0.9,3.6,54,0.00,,,0.00,WUHU216HW,2014-12-19 18:51:00,
2014-12-19 11:56:00,39.6,24.2,29.88,South,180,1.1,4.7,54,0.00,,,0.00,WUHU216HW,2014-12-19 18:56:00,
2014-12-19 12:01:00,40.0,24.6,29.87,South,180,2.5,4.7,54,0.00,,,0.00,WUHU216HW,2014-12-19 19:01:00,
2014-12-19 12:06:00,40.7,25.2,29.87,SSW,203,2.5,4.0,54,0.00,,,0.00,WUHU216HW,2014-12-19 19:06:00,
2014-12-19 12:11:00,41.0,25.6,29.87,South,180,2.5,2.5,54,0.00,,,0.00,WUHU216HW,2014-12-19 19:11:00,
2014-12-19 12:16:00,41.4,25.0,29.88,SSW,203,1.1,6.3,52,0.00,,,0.00,WUHU216HW,2014-12-19 19:16:00,
2014-12-19 12:21:00,41.6,25.2,29.87,West,270,4.3,6.3,52,0.00,,,0.00,WUHU216HW,2014-12-19 19:21:00,
2014-12-19 12:26:00,41.6,25.2,29.87,WSW,248,4.0,4.3,52,0.00,,,0.00,WUHU216HW,2014-12-19 19:26:00,
2014-12-19 12:31:00,41.8,25.8,29.87,WSW,248,4.0,5.8,53,0.00,,,0.00,WUHU216HW,2014-12-19 19:31:00,
2014-12-19 12:36:00,41.8,25.4,29.86,South,180,1.8,5.8,52,0.00,,,0.00,WUHU216HW,2014-12-19 19:36:00,
2014-12-19 12:41:00,41.8,25.8,29.86,ESE,113,1.6,4.5,53,0.00,,,0.00,WUHU216HW,2014-12-19 19:41:00,
2014-12-19 12:46:00,41.9,25.6,29.86,SE,135,1.1,2.7,52,0.00,,,0.00,WUHU216HW,2014-12-19 19:46:00,
2014-12-19 12:51:00,41.9,26.0,29.86,ESE,113,0.4,1.3,53,0.00,,,0.00,WUHU216HW,2014-12-19 19:51:00,
2014-12-19 12:56:00,42.1,26.2,29.86,ESE,113,0.2,1.3,53,0.00,,,0.00,WUHU216HW,2014-12-19 19:56:00,
2014-12-19 13:01:00,42.3,26.4,29.85,SSE,158,1.8,2.5,53,0.00,,,0.00,WUHU216HW,2014-12-19 20:01:00,
2014-12-19 13:06:00,42.5,26.6,29.85,SSE,158,3.4,4.3,53,0.00,,,0.00,WUHU216HW,2014-12-19 20:06:00,
2014-12-19 13:11:00,42.8,26.8,29.85,SSW,203,1.8,4.3,53,0.00,,,0.00,WUHU216HW,2014-12-19 20:11:00,
2014-12-19 13:16:00,43.2,27.2,29.85,SE,135,2.0,4.0,53,0.00,,,0.00,WUHU216HW,2014-12-19 20:16:00,
2014-12-19 13:21:00,43.2,27.2,29.86,SSW,203,1.3,2.9,53,0.00,,,0.00,WUHU216HW,2014-12-19 20:21:00,
2014-12-19 13:26:00,43.4,27.4,29.85,South,180,2.5,2.5,53,0.00,,,0.00,WUHU216HW,2014-12-19 20:26:00,
2014-12-19 13:31:00,43.6,27.6,29.85,SSE,158,1.8,3.4,53,0.00,,,0.00,WUHU216HW,2014-12-19 20:31:00,
2014-12-19 13:36:00,43.7,27.7,29.85,SSE,158,2.2,4.0,53,0.00,,,0.00,WUHU216HW,2014-12-19 20:36:00,
2014-12-19 13:41:00,43.9,27.5,29.85,SSW,203,3.8,4.0,52,0.00,,,0.00,WUHU216HW,2014-12-19 20:41:00,
2014-12-19 13:46:00,43.9,27.5,29.85,SSE,158,2.5,3.8,52,0.00,,,0.00,WUHU216HW,2014-12-19 20:46:00,
2014-12-19 13:51:00,44.1,27.5,29.85,WSW,248,2.5,4.3,52,0.00,,,0.00,WUHU216HW,2014-12-19 20:51:00,
2014-12-19 13:56:00,44.1,27.5,29.85,SSW,203,1.8,4.3,52,0.00,,,0.00,WUHU216HW,2014-12-19 20:56:00,
2014-12-19 14:01:00,44.3,27.7,29.85,SSE,158,1.3,4.0,52,0.00,,,0.00,WUHU216HW,2014-12-19 21:01:00,
2014-12-19 14:06:00,44.5,27.9,29.85,WSW,248,0.4,4.0,52,0.00,,,0.00,WUHU216HW,2014-12-19 21:06:00,
2014-12-19 14:11:00,44.5,27.5,29.85,SSE,158,1.1,4.0,51,0.00,,,0.00,WUHU216HW,2014-12-19 21:11:00,
2014-12-19 14:16:00,44.6,28.1,29.85,SE,135,2.5,4.7,52,0.00,,,0.00,WUHU216HW,2014-12-19 21:16:00,
2014-12-19 14:21:00,44.8,27.8,29.84,SSE,158,2.7,4.7,51,0.00,,,0.00,WUHU216HW,2014-12-19 21:21:00,
2014-12-19 14:26:00,44.8,27.8,29.84,SSE,158,1.1,3.1,51,0.00,,,0.00,WUHU216HW,2014-12-19 21:26:00,
2014-12-19 14:31:00,44.8,27.8,29.84,SSW,203,1.1,3.1,51,0.00,,,0.00,WUHU216HW,2014-12-19 21:31:00,
2014-12-19 14:36:00,44.6,27.6,29.84,SSE,158,2.2,3.1,51,0.00,,,0.00,WUHU216HW,2014-12-19 21:36:00,
2014-12-19 14:41:00,44.3,27.3,29.84,SSE,158,1.8,2.2,51,0.00,,,0.00,WUHU216HW,2014-12-19 21:41:00,
2014-12-19 14:46:00,44.1,27.2,29.84,South,180,2.5,4.0,51,0.00,,,0.00,WUHU216HW,2014-12-19 21:46:00,
2014-12-19 14:51:00,43.9,27.0,29.84,South,180,0.9,4.0,51,0.00,,,0.00,WUHU216HW,2014-12-19 21:51:00,
2014-12-19 14:56:00,43.9,27.5,29.85,South,180,0.0,2.9,52,0.00,,,0.00,WUHU216HW,2014-12-19 21:56:00,
2014-12-19 15:01:00,43.7,27.3,29.85,South,180,0.4,1.8,52,0.00,,,0.00,WUHU216HW,2014-12-19 22:01:00,
2014-12-19 15:06:00,43.7,27.3,29.84,SSE,158,0.9,2.2,52,0.00,,,0.00,WUHU216HW,2014-12-19 22:06:00,
2014-12-19 15:11:00,43.6,27.1,29.85,South,180,0.0,2.2,52,0.00,,,0.00,WUHU216HW,2014-12-19 22:11:00,
2014-12-19 15:16:00,43.6,27.1,29.85,WSW,248,1.1,1.6,52,0.00,,,0.00,WUHU216HW,2014-12-19 22:16:00,
2014-12-19 15:21:00,43.4,26.9,29.85,SSE,158,0.9,1.1,52,0.00,,,0.00,WUHU216HW,2014-12-19 22:21:00,
2014-12-19 15:26:00,43.2,26.3,29.85,SSE,158,0.7,3.6,51,0.00,,,0.00,WUHU216HW,2014-12-19 22:26:00,
2014-12-19 15:31:00,42.8,26.0,29.85,WSW,248,2.2,3.6,51,0.00,,,0.00,WUHU216HW,2014-12-19 22:31:00,
2014-12-19 15:36:00,42.7,25.8,29.84,WSW,248,0.4,2.5,51,0.00,,,0.00,WUHU216HW,2014-12-19 22:36:00,
2014-12-19 15:41:00,42.5,25.7,29.84,SW,225,5.8,5.8,51,0.00,,,0.00,WUHU216HW,2014-12-19 22:41:00,
2014-12-19 15:46:00,42.1,24.8,29.84,WSW,248,2.2,5.8,50,0.00,,,0.00,WUHU216HW,2014-12-19 22:46:00,
2014-12-19 15:51:00,41.9,24.7,29.84,SSW,203,4.0,4.0,50,0.00,,,0.00,WUHU216HW,2014-12-19 22:51:00,
2014-12-19 15:56:00,41.8,24.5,29.84,SW,225,5.1,5.4,50,0.00,,,0.00,WUHU216HW,2014-12-19 22:56:00,
2014-12-19 16:01:00,41.4,24.1,29.84,SW,225,4.7,6.3,50,0.00,,,0.00,WUHU216HW,2014-12-19 23:01:00,
2014-12-19 16:06:00,41.0,24.2,29.84,SW,225,2.0,6.3,51,0.00,,,0.00,WUHU216HW,2014-12-19 23:06:00,
2014-12-19 16:11:00,40.9,24.5,29.84,SSW,203,2.7,5.4,52,0.00,,,0.00,WUHU216HW,2014-12-19 23:11:00,
2014-12-19 16:16:00,40.7,24.3,29.84,SSW,203,1.1,5.4,52,0.00,,,0.00,WUHU216HW,2014-12-19 23:16:00,
2014-12-19 16:21:00,40.5,24.1,29.84,SSE,158,1.3,3.6,52,0.00,,,0.00,WUHU216HW,2014-12-19 23:21:00,
2014-12-19 16:26:00,40.3,24.0,29.84,SSW,203,1.3,3.1,52,0.00,,,0.00,WUHU216HW,2014-12-19 23:26:00,
2014-12-19 16:31:00,40.0,24.1,29.84,SE,135,1.3,3.6,53,0.00,,,0.00,WUHU216HW,2014-12-19 23:31:00,
2014-12-19 16:36:00,39.8,24.0,29.84,South,180,3.1,5.8,53,0.00,,,0.00,WUHU216HW,2014-12-19 23:36:00,
2014-12-19 16:41:00,39.4,23.6,29.83,South,180,1.1,6.7,53,0.00,,,0.00,WUHU216HW,2014-12-19 23:41:00,
2014-12-19 16:46:00,39.2,23.4,29.83,SSE,158,1.1,6.7,53,0.00,,,0.00,WUHU216HW,2014-12-19 23:46:00,
2014-12-19 16:51:00,38.9,23.6,29.83,South,180,1.1,3.4,54,0.00,,,0.00,WUHU216HW,2014-12-19 23:51:00,
2014-12-19 16:56:00,38.5,23.2,29.83,South,180,0.4,3.4,54,0.00,,,0.00,WUHU216HW,2014-12-19 23:56:00,
2014-12-19 17:01:00,38.3,23.0,29.84,South,180,1.8,2.5,54,0.00,,,0.00,WUHU216HW,2014-12-20 00:01:00,
2014-12-19 17:06:00,38.0,23.1,29.83,SW,225,0.7,2.7,55,0.00,,,0.00,WUHU216HW,2014-12-20 00:06:00,
2014-12-19 17:11:00,37.8,23.1,29.84,SW,225,1.3,3.4,55,0.00,,,0.00,WUHU216HW,2014-12-20 00:11:00,
2014-12-19 17:16:00,37.6,22.9,29.84,WSW,248,3.1,3.8,55,0.00,,,0.00,WUHU216HW,2014-12-20 00:16:00,
2014-12-19 17:21:00,37.4,23.1,29.84,SW,225,1.3,3.8,56,0.00,,,0.00,WUHU216HW,2014-12-20 00:21:00,
2014-12-19 17:26:00,37.3,23.0,29.84,West,270,1.6,2.0,56,0.00,,,0.00,WUHU216HW,2014-12-20 00:26:00,